Terminal Aerodrome Forecast
Issued by NWS

Home | Current Version | Previous Version | Text Only | Print | Product List | Glossary On
Versions: 1 2 3 4 5 6 7 8 9 10 11 12 13 14 15 16 17 18 19 20 21 22 23 24 25 26 27 28 29 30 31 32 33
000
FTUS46 KLOX 262300
TAFVNY
TAF
KVNY 262324Z 2700/2724 33015G25KT P6SM SKC
     FM270400 35008KT P6SM SKC
     FM271000 36010KT P6SM SKC WS015/01030KT
     FM271500 01020G30KT P6SM SKC
     FM272200 35012KT P6SM SKC=

USA.gov is the U.S. government's official web portal to all federal, state and local government web resources and services.